sensor_id;sensor_type;location;lat;lon;timestamp;pressure;altitude;pressure_sealevel;temperature;humidity
14757;BME280;62446;53.214;10.398;2022-11-27T15:51:13;101751.13;;;2.82;87.75
14757;BME280;62446;53.214;10.398;2022-11-27T15:54:18;101753.06;;;2.90;86.39
14757;BME280;62446;53.214;10.398;2022-11-27T15:57:21;101743.59;;;3.02;85.46
14757;BME280;62446;53.214;10.398;2022-11-27T16:00:25;101737.63;;;2.99;85.15
14757;BME280;62446;53.214;10.398;2022-11-27T16:03:29;101733.41;;;3.04;84.28
14757;BME280;62446;53.214;10.398;2022-11-27T16:06:37;101726.16;;;2.95;84.63
14757;BME280;62446;53.214;10.398;2022-11-27T16:09:40;101727.97;;;3.04;84.87
14757;BME280;62446;53.214;10.398;2022-11-27T16:12:44;101734.50;;;3.12;84.62
14757;BME280;62446;53.214;10.398;2022-11-27T16:15:48;101734.50;;;3.12;84.00
14757;BME280;62446;53.214;10.398;2022-11-27T16:18:55;101728.72;;;3.15;84.04
14757;BME280;62446;53.214;10.398;2022-11-27T16:22:02;101719.88;;;3.21;83.72
14757;BME280;62446;53.214;10.398;2022-11-27T16:25:06;101721.31;;;3.33;83.32
14757;BME280;62446;53.214;10.398;2022-11-27T16:28:10;101715.78;;;3.17;84.16
14757;BME280;62446;53.214;10.398;2022-11-27T16:31:13;101716.59;;;3.17;83.25
14757;BME280;62446;53.214;10.398;2022-11-27T16:34:17;101716.00;;;3.23;83.12
14757;BME280;62446;53.214;10.398;2022-11-27T16:37:23;101714.28;;;3.22;83.32
14757;BME280;62446;53.214;10.398;2022-11-27T16:40:27;101711.03;;;3.19;82.98
14757;BME280;62446;53.214;10.398;2022-11-27T16:43:33;101704.34;;;3.13;83.53
14757;BME280;62446;53.214;10.398;2022-11-27T16:46:38;101697.69;;;3.16;84.30
14757;BME280;62446;53.214;10.398;2022-11-27T16:49:42;101697.91;;;3.22;82.92
14757;BME280;62446;53.214;10.398;2022-11-27T16:52:49;101694.28;;;3.14;83.59
14757;BME280;62446;53.214;10.398;2022-11-27T16:55:58;101688.50;;;3.17;84.25
14757;BME280;62446;53.214;10.398;2022-11-27T16:59:01;101688.50;;;3.17;83.84
14757;BME280;62446;53.214;10.398;2022-11-27T17:02:10;101683.38;;;3.14;84.71
14757;BME280;62446;53.214;10.398;2022-11-27T17:05:14;101690.88;;;3.12;84.33
14757;BME280;62446;53.214;10.398;2022-11-27T17:08:19;101690.56;;;3.15;84.99
14757;BME280;62446;53.214;10.398;2022-11-27T17:11:25;101688.25;;;3.28;84.28
14757;BME280;62446;53.214;10.398;2022-11-27T17:14:29;101687.13;;;3.13;84.84
14757;BME280;62446;53.214;10.398;2022-11-27T17:17:32;101683.63;;;2.94;85.79
14757;BME280;62446;53.214;10.398;2022-11-27T17:20:42;101678.59;;;3.07;85.52
14757;BME280;62446;53.214;10.398;2022-11-27T17:23:47;101673.13;;;3.07;85.71
14757;BME280;62446;53.214;10.398;2022-11-27T17:26:51;101674.69;;;2.84;86.41
14757;BME280;62446;53.214;10.398;2022-11-27T17:30:04;101673.81;;;3.10;86.01
14757;BME280;62446;53.214;10.398;2022-11-27T17:33:08;101660.00;;;3.03;86.24
14757;BME280;62446;53.214;10.398;2022-11-27T17:36:13;101657.84;;;3.15;85.65
14757;BME280;62446;53.214;10.398;2022-11-27T17:39:18;101658.03;;;3.21;85.57
14757;BME280;62446;53.214;10.398;2022-11-27T17:42:22;101655.16;;;3.23;84.94
14757;BME280;62446;53.214;10.398;2022-11-27T17:45:25;101662.00;;;3.27;84.35
14757;BME280;62446;53.214;10.398;2022-11-27T17:48:29;101656.88;;;3.24;84.70
14757;BME280;62446;53.214;10.398;2022-11-27T17:51:34;101653.97;;;3.25;85.63
14757;BME280;62446;53.214;10.398;2022-11-27T17:54:39;101650.72;;;3.22;85.97
14757;BME280;62446;53.214;10.398;2022-11-27T17:57:43;101643.06;;;3.25;85.21
14757;BME280;62446;53.214;10.398;2022-11-27T18:00:47;101647.69;;;3.25;84.93
14757;BME280;62446;53.214;10.398;2022-11-27T18:03:53;101640.34;;;3.25;85.25
14757;BME280;62446;53.214;10.398;2022-11-27T18:06:58;101638.84;;;3.31;84.88
14757;BME280;62446;53.214;10.398;2022-11-27T18:10:06;101628.09;;;3.30;85.44
14757;BME280;62446;53.214;10.398;2022-11-27T18:13:10;101619.75;;;3.31;85.57
14757;BME280;62446;53.214;10.398;2022-11-27T18:16:16;101612.25;;;3.33;84.66
14757;BME280;62446;53.214;10.398;2022-11-27T18:19:20;101612.81;;;3.37;84.79
14757;BME280;62446;53.214;10.398;2022-11-27T18:22:24;101603.41;;;3.31;85.38
14757;BME280;62446;53.214;10.398;2022-11-27T18:25:29;101605.44;;;3.29;85.47
14757;BME280;62446;53.214;10.398;2022-11-27T18:28:33;101593.44;;;3.14;85.93
14757;BME280;62446;53.214;10.398;2022-11-27T18:31:37;101586.97;;;3.15;85.66
14757;BME280;62446;53.214;10.398;2022-11-27T18:34:43;101580.91;;;3.29;85.20
14757;BME280;62446;53.214;10.398;2022-11-27T18:37:47;101579.72;;;3.32;85.07
14757;BME280;62446;53.214;10.398;2022-11-27T18:40:52;101567.41;;;3.28;85.16
14757;BME280;62446;53.214;10.398;2022-11-27T18:43:56;101566.56;;;3.19;85.21
14757;BME280;62446;53.214;10.398;2022-11-27T18:47:00;101566.22;;;3.22;85.27
14757;BME280;62446;53.214;10.398;2022-11-27T18:50:06;101555.66;;;3.19;85.75
14757;BME280;62446;53.214;10.398;2022-11-27T18:53:10;101551.63;;;3.39;84.40
14757;BME280;62446;53.214;10.398;2022-11-27T18:56:18;101548.72;;;3.33;84.11
14757;BME280;62446;53.214;10.398;2022-11-27T18:59:22;101548.50;;;3.18;84.62
14757;BME280;62446;53.214;10.398;2022-11-27T19:02:27;101543.56;;;3.21;85.20
14757;BME280;62446;53.214;10.398;2022-11-27T19:05:30;101546.47;;;3.28;84.90
14757;BME280;62446;53.214;10.398;2022-11-27T19:08:34;101544.22;;;3.15;85.90
14757;BME280;62446;53.214;10.398;2022-11-27T19:11:40;101536.16;;;3.05;85.28
14757;BME280;62446;53.214;10.398;2022-11-27T19:14:43;101529.75;;;3.23;85.26
14757;BME280;62446;53.214;10.398;2022-11-27T19:17:47;101535.19;;;3.15;84.57
14757;BME280;62446;53.214;10.398;2022-11-27T19:20:51;101519.91;;;3.22;84.56
14757;BME280;62446;53.214;10.398;2022-11-27T19:23:58;101518.91;;;3.39;83.40
14757;BME280;62446;53.214;10.398;2022-11-27T19:27:03;101514.47;;;3.47;83.17
14757;BME280;62446;53.214;10.398;2022-11-27T19:30:08;101514.66;;;3.53;82.10
14757;BME280;62446;53.214;10.398;2022-11-27T19:33:12;101508.19;;;3.46;82.72
14757;BME280;62446;53.214;10.398;2022-11-27T19:36:15;101513.41;;;3.23;83.59
14757;BME280;62446;53.214;10.398;2022-11-27T19:39:19;101497.41;;;3.36;83.04
14757;BME280;62446;53.214;10.398;2022-11-27T19:42:24;101500.16;;;3.28;83.16
14757;BME280;62446;53.214;10.398;2022-11-27T19:45:28;101508.50;;;3.27;82.94
14757;BME280;62446;53.214;10.398;2022-11-27T19:48:32;101503.91;;;3.43;83.09
14757;BME280;62446;53.214;10.398;2022-11-27T19:51:37;101502.88;;;3.36;82.49
14757;BME280;62446;53.214;10.398;2022-11-27T19:54:42;101513.63;;;3.38;82.65
14757;BME280;62446;53.214;10.398;2022-11-27T19:57:48;101488.94;;;3.56;82.25
14757;BME280;62446;53.214;10.398;2022-11-27T20:00:52;101485.19;;;3.49;82.53
14757;BME280;62446;53.214;10.398;2022-11-27T20:03:56;101484.16;;;3.41;82.29
14757;BME280;62446;53.214;10.398;2022-11-27T20:07:01;101488.19;;;3.21;83.30
14757;BME280;62446;53.214;10.398;2022-11-27T20:10:06;101480.75;;;3.39;82.13
14757;BME280;62446;53.214;10.398;2022-11-27T20:13:11;101473.09;;;3.51;82.08
14757;BME280;62446;53.214;10.398;2022-11-27T20:16:18;101474.75;;;3.36;82.90
14757;BME280;62446;53.214;10.398;2022-11-27T20:19:23;101478.03;;;3.39;82.66
14757;BME280;62446;53.214;10.398;2022-11-27T20:22:27;101476.13;;;3.40;83.19
14757;BME280;62446;53.214;10.398;2022-11-27T20:25:31;101463.03;;;3.52;82.16
14757;BME280;62446;53.214;10.398;2022-11-27T20:28:37;101462.53;;;3.48;82.50
14757;BME280;62446;53.214;10.398;2022-11-27T20:31:43;101467.63;;;3.59;81.57
14757;BME280;62446;53.214;10.398;2022-11-27T20:34:47;101470.03;;;3.79;80.60
14757;BME280;62446;53.214;10.398;2022-11-27T20:37:51;101464.75;;;3.69;81.03
14757;BME280;62446;53.214;10.398;2022-11-27T20:40:54;101462.84;;;3.53;81.58
14757;BME280;62446;53.214;10.398;2022-11-27T20:44:00;101462.34;;;3.58;80.98
14757;BME280;62446;53.214;10.398;2022-11-27T20:47:06;101461.47;;;3.49;81.52
14757;BME280;62446;53.214;10.398;2022-11-27T20:50:10;101456.56;;;3.77;81.15
14757;BME280;62446;53.214;10.398;2022-11-27T20:53:14;101458.78;;;3.57;81.35
14757;BME280;62446;53.214;10.398;2022-11-27T20:56:19;101457.75;;;3.67;80.84
14757;BME280;62446;53.214;10.398;2022-11-27T20:59:24;101455.19;;;3.65;80.49
14757;BME280;62446;53.214;10.398;2022-11-27T21:02:27;101463.22;;;3.75;80.79
14757;BME280;62446;53.214;10.398;2022-11-27T21:05:31;101458.09;;;3.64;80.89
14757;BME280;62446;53.214;10.398;2022-11-27T21:08:35;101447.00;;;3.65;81.30
14757;BME280;62446;53.214;10.398;2022-11-27T21:11:39;101447.34;;;3.62;81.23
14757;BME280;62446;53.214;10.398;2022-11-27T21:14:45;101449.41;;;3.52;81.71
14757;BME280;62446;53.214;10.398;2022-11-27T21:17:48;101439.00;;;3.64;80.75
14757;BME280;62446;53.214;10.398;2022-11-27T21:20:52;101440.88;;;3.55;81.17
14757;BME280;62446;53.214;10.398;2022-11-27T21:23:56;101435.41;;;3.71;80.65
14757;BME280;62446;53.214;10.398;2022-11-27T21:26:59;101443.94;;;3.76;80.56
